Time;durP1;ratioP1;P1;durP2;ratioP2;P2;SDS_P1;SDS_P2;PMS_P1;PMS_P2;Temp;Humidity;BMP_temperature;BMP_pressure;BME280_temperature;BME280_humidity;BME280_pressure;Samples;Min_cycle;Max_cycle;Signal;HPM_P1;HPM_P2
2021/11/11 00:00:13;;;;;;;1.40;1.40;;;4.30;81.50;;;;;;5046704;28;20232;-72
2021/11/11 00:02:39;;;;;;;1.57;1.47;;;4.30;81.80;;;;;;5046170;28;20731;-72
2021/11/11 00:05:06;;;;;;;1.30;1.30;;;4.30;81.80;;;;;;5047493;28;20267;-72
2021/11/11 00:07:33;;;;;;;1.73;1.63;;;4.20;81.80;;;;;;5047738;28;20179;-72
2021/11/11 00:10:00;;;;;;;1.47;1.37;;;4.20;81.90;;;;;;5043699;28;20645;-72
2021/11/11 00:12:26;;;;;;;1.70;1.60;;;;;;;;;;5045099;28;20191;-72
2021/11/11 00:14:53;;;;;;;2.00;1.50;;;4.20;82.20;;;;;;5045166;28;20197;-72
2021/11/11 00:17:19;;;;;;;1.63;1.17;;;4.20;82.10;;;;;;5043729;28;20239;-72
2021/11/11 00:19:45;;;;;;;1.40;1.30;;;;;;;;;;5046174;28;20215;-72
2021/11/11 00:22:11;;;;;;;1.43;1.37;;;4.10;82.10;;;;;;5045928;28;20658;-72
2021/11/11 00:24:37;;;;;;;0.97;0.97;;;4.10;82.40;;;;;;5045906;28;20211;-72
2021/11/11 00:27:03;;;;;;;1.10;1.10;;;4.10;82.40;;;;;;5045414;28;20182;-72
2021/11/11 00:29:29;;;;;;;1.90;1.30;;;;;;;;;;5042764;28;20674;-72
2021/11/11 00:31:55;;;;;;;1.50;0.80;;;;;;;;;;5042869;28;20176;-72
2021/11/11 00:34:21;;;;;;;2.73;1.97;;;;;;;;;;5044950;28;20279;-72
2021/11/11 00:36:47;;;;;;;1.20;1.10;;;;;;;;;;5044220;28;20275;-71
2021/11/11 00:39:13;;;;;;;3.00;1.10;;;;;;;;;;5043292;28;21433;-72
2021/11/11 00:41:39;;;;;;;1.87;1.37;;;3.90;82.40;;;;;;5047270;28;20261;-71
2021/11/11 00:44:05;;;;;;;0.90;0.87;;;3.90;82.40;;;;;;5045201;28;20275;-72
2021/11/11 00:46:31;;;;;;;1.73;1.43;;;3.90;82.40;;;;;;5043282;28;20249;-71
2021/11/11 00:48:56;;;;;;;2.07;1.67;;;3.90;82.30;;;;;;5043521;28;20191;-73
2021/11/11 00:51:22;;;;;;;2.57;1.70;;;3.90;82.60;;;;;;5045855;28;20241;-72
2021/11/11 00:53:49;;;;;;;1.13;1.03;;;3.90;82.40;;;;;;5046828;28;20214;-72
2021/11/11 00:56:15;;;;;;;1.77;1.63;;;;;;;;;;5044515;28;20167;-71
2021/11/11 00:58:41;;;;;;;1.60;1.50;;;;;;;;;;5043700;28;20194;-72
2021/11/11 01:01:07;;;;;;;1.53;1.43;;;3.90;82.40;;;;;;5043956;28;21114;-72
2021/11/11 01:03:40;;;;;;;1.37;1.30;;;3.80;82.60;;;;;;5046093;28;20180;-74
2021/11/11 01:06:07;;;;;;;7.73;1.40;;;3.80;82.80;;;;;;5044929;28;20254;-71
2021/11/11 01:08:34;;;;;;;1.50;1.50;;;3.80;82.70;;;;;;5044480;28;20187;-71
2021/11/11 01:11:00;;;;;;;1.57;1.47;;;3.80;82.90;;;;;;5044997;28;20225;-73
2021/11/11 01:13:26;;;;;;;2.30;2.10;;;3.70;83.00;;;;;;5045797;28;20698;-71
2021/11/11 01:15:52;;;;;;;8.27;1.30;;;3.60;83.60;;;;;;5045642;28;20187;-71
2021/11/11 01:18:18;;;;;;;1.53;1.53;;;3.50;83.70;;;;;;5047174;28;20203;-72
2021/11/11 01:20:44;;;;;;;1.13;1.13;;;3.50;83.70;;;;;;5043243;28;20276;-72
2021/11/11 01:23:10;;;;;;;1.93;1.83;;;3.50;83.60;;;;;;5043544;28;20206;-72
2021/11/11 01:25:38;;;;;;;1.00;1.00;;;3.50;83.60;;;;;;5045949;28;20657;-72
2021/11/11 01:28:04;;;;;;;4.70;1.77;;;3.50;83.80;;;;;;5045274;28;20677;-72
2021/11/11 01:30:30;;;;;;;2.50;1.47;;;;;;;;;;5043667;28;20188;-72
2021/11/11 01:32:56;;;;;;;4.10;1.97;;;3.50;83.60;;;;;;5045350;28;20210;-72
2021/11/11 01:35:22;;;;;;;1.70;1.60;;;3.50;83.60;;;;;;5045170;28;21027;-72
2021/11/11 01:37:48;;;;;;;1.80;1.50;;;3.40;83.60;;;;;;5045340;28;20190;-72
2021/11/11 01:40:15;;;;;;;1.23;1.23;;;3.40;83.60;;;;;;5043519;28;20298;-73
2021/11/11 01:42:46;;;;;;;1.80;1.70;;;3.40;83.60;;;;;;5044453;28;20734;-71
2021/11/11 01:45:13;;;;;;;9.57;2.03;;;3.40;83.90;;;;;;5041324;28;20577;-72
2021/11/11 01:47:40;;;;;;;1.23;1.23;;;3.40;83.60;;;;;;5042920;28;20184;-73
2021/11/11 01:50:08;;;;;;;1.33;1.33;;;3.50;83.70;;;;;;5045721;28;20367;-72
2021/11/11 01:52:35;;;;;;;1.80;1.50;;;3.40;83.60;;;;;;5044866;28;20183;-72
2021/11/11 01:55:00;;;;;;;1.90;1.80;;;3.40;83.70;;;;;;5042593;28;20851;-71
2021/11/11 01:57:27;;;;;;;1.53;1.43;;;3.40;83.70;;;;;;5046124;28;20187;-72
2021/11/11 01:59:53;;;;;;;1.10;1.10;;;3.40;83.80;;;;;;5045322;28;20243;-72
2021/11/11 02:02:27;;;;;;;1.97;1.77;;;3.40;83.90;;;;;;5044615;28;20187;-72
2021/11/11 02:04:53;;;;;;;1.13;1.10;;;3.30;83.80;;;;;;5044903;28;20661;-72
2021/11/11 02:07:19;;;;;;;1.70;1.27;;;3.30;84.00;;;;;;5045656;28;20183;-72
2021/11/11 02:09:44;;;;;;;1.67;1.57;;;3.30;84.00;;;;;;5044027;28;21138;-72
2021/11/11 02:12:10;;;;;;;1.40;1.40;;;3.30;84.00;;;;;;5044225;28;20263;-72
2021/11/11 02:14:36;;;;;;;1.33;1.33;;;3.30;83.80;;;;;;5042978;28;20184;-72
2021/11/11 02:17:02;;;;;;;1.40;1.30;;;3.20;83.80;;;;;;5043121;28;20203;-72
2021/11/11 02:19:28;;;;;;;0.80;0.80;;;3.30;83.70;;;;;;5043606;28;20232;-72
2021/11/11 02:21:55;;;;;;;0.83;0.73;;;3.30;83.80;;;;;;5043889;28;20182;-72
2021/11/11 02:24:21;;;;;;;1.80;1.20;;;3.30;83.60;;;;;;5044375;28;20212;-73
2021/11/11 02:26:50;;;;;;;2.13;1.50;;;3.30;83.60;;;;;;5039889;28;20956;-72
2021/11/11 02:29:16;;;;;;;1.70;1.17;;;3.30;83.60;;;;;;5045371;28;20295;-72
2021/11/11 02:31:41;;;;;;;1.40;1.30;;;3.30;83.50;;;;;;5045050;28;20624;-71
2021/11/11 02:34:07;;;;;;;3.70;2.00;;;3.20;83.40;;;;;;5042131;28;20275;-71
2021/11/11 02:36:33;;;;;;;3.47;1.07;;;3.30;83.60;;;;;;5049430;28;20846;-71
2021/11/11 02:39:00;;;;;;;1.03;1.03;;;3.30;83.70;;;;;;5049256;28;20765;-71
2021/11/11 02:41:26;;;;;;;0.97;0.97;;;3.20;83.60;;;;;;5047987;28;20755;-71
2021/11/11 02:43:52;;;;;;;2.67;1.20;;;3.20;83.70;;;;;;5048703;28;20286;-71
2021/11/11 02:46:17;;;;;;;2.97;1.10;;;3.20;83.50;;;;;;5047642;28;20190;-71
2021/11/11 02:48:43;;;;;;;3.77;1.07;;;3.20;83.50;;;;;;5048616;28;20190;-72
2021/11/11 02:51:09;;;;;;;1.50;1.40;;;3.20;83.70;;;;;;5047211;28;20184;-73
2021/11/11 02:53:40;;;;;;;0.90;0.90;;;3.20;83.60;;;;;;5047600;28;20172;-72
2021/11/11 02:56:06;;;;;;;1.10;1.10;;;;;;;;;;5045914;28;20176;-72
2021/11/11 02:58:32;;;;;;;1.90;1.00;;;;;;;;;;5047305;28;20184;-72
2021/11/11 03:01:05;;;;;;;2.13;1.10;;;3.10;83.50;;;;;;5047864;28;20234;-71
2021/11/11 03:03:31;;;;;;;0.60;0.60;;;3.10;83.60;;;;;;5047280;28;20179;-72
2021/11/11 03:05:57;;;;;;;1.20;1.13;;;3.10;83.60;;;;;;5047744;28;20880;-72
2021/11/11 03:08:23;;;;;;;0.87;0.87;;;3.10;83.50;;;;;;5047578;28;20271;-73
2021/11/11 03:10:50;;;;;;;0.77;0.60;;;3.10;83.40;;;;;;5046598;28;20188;-72
2021/11/11 03:13:17;;;;;;;0.80;0.80;;;3.10;83.50;;;;;;5045455;28;20214;-73
2021/11/11 03:15:43;;;;;;;0.97;0.90;;;3.10;83.60;;;;;;5045810;28;20184;-72
2021/11/11 03:18:11;;;;;;;0.70;0.70;;;3.10;83.60;;;;;;5045576;28;20174;-72
2021/11/11 03:20:37;;;;;;;1.43;1.43;;;3.10;83.60;;;;;;5046352;28;20232;-72
2021/11/11 03:23:04;;;;;;;1.23;1.23;;;3.10;83.60;;;;;;5046985;28;20183;-73
2021/11/11 03:25:32;;;;;;;1.27;1.17;;;3.10;83.50;;;;;;5046331;28;20172;-73
2021/11/11 03:27:58;;;;;;;1.10;1.10;;;3.10;83.40;;;;;;5045302;28;20207;-72
2021/11/11 03:30:26;;;;;;;1.23;1.13;;;3.10;83.40;;;;;;5046498;28;20278;-73
2021/11/11 03:32:53;;;;;;;1.43;1.43;;;3.00;83.70;;;;;;5046442;28;20172;-71
2021/11/11 03:35:19;;;;;;;0.90;0.90;;;3.00;83.70;;;;;;5046225;28;20249;-72
2021/11/11 03:37:47;;;;;;;1.00;1.00;;;3.00;83.60;;;;;;5044530;28;20732;-72
2021/11/11 03:40:17;;;;;;;1.23;1.23;;;3.00;83.60;;;;;;5047620;28;20230;-72
2021/11/11 03:42:46;;;;;;;0.87;0.80;;;3.00;83.50;;;;;;5044439;28;20191;-70
2021/11/11 03:45:12;;;;;;;1.03;1.03;;;3.10;83.50;;;;;;5046404;28;20229;-71
2021/11/11 03:47:38;;;;;;;1.23;1.17;;;3.00;83.60;;;;;;5047624;28;20635;-71
2021/11/11 03:50:05;;;;;;;1.03;1.03;;;3.00;84.00;;;;;;5046713;28;20183;-71
2021/11/11 03:52:32;;;;;;;1.63;1.53;;;3.00;83.90;;;;;;5045996;28;20210;-71
2021/11/11 03:54:58;;;;;;;1.03;0.97;;;3.00;83.90;;;;;;5045730;28;20187;-71
2021/11/11 03:57:24;;;;;;;0.87;0.83;;;3.00;83.70;;;;;;5044371;28;20234;-71
2021/11/11 03:59:50;;;;;;;0.87;0.87;;;3.00;83.90;;;;;;5044786;28;20239;-71
2021/11/11 04:02:16;;;;;;;1.20;0.90;;;3.00;83.90;;;;;;5045458;28;20185;-71
2021/11/11 04:04:42;;;;;;;1.30;1.30;;;2.90;83.90;;;;;;5046961;28;20188;-71
2021/11/11 04:07:08;;;;;;;1.33;1.20;;;2.90;83.90;;;;;;5046817;28;20309;-72
2021/11/11 04:09:34;;;;;;;1.97;1.20;;;2.90;84.00;;;;;;5041667;28;20585;-73
2021/11/11 04:12:01;;;;;;;1.37;0.90;;;2.90;84.00;;;;;;5043027;28;20191;-73
2021/11/11 04:14:27;;;;;;;3.13;1.03;;;2.90;84.00;;;;;;5045052;28;20187;-73
2021/11/11 04:16:52;;;;;;;1.30;1.30;;;2.90;84.00;;;;;;5045554;28;20811;-74
2021/11/11 04:19:18;;;;;;;1.50;1.00;;;2.90;84.00;;;;;;5044715;28;20184;-73
2021/11/11 04:21:44;;;;;;;1.87;1.50;;;2.80;84.00;;;;;;5043998;28;20190;-73
2021/11/11 04:24:10;;;;;;;1.07;0.97;;;2.80;84.20;;;;;;5046285;28;20611;-72
2021/11/11 04:26:47;;;;;;;1.00;1.00;;;2.80;84.10;;;;;;5042293;28;20272;-73
2021/11/11 04:29:19;;;;;;;2.57;1.20;;;2.80;84.20;;;;;;5047710;28;20192;-72
2021/11/11 04:31:52;;;;;;;1.30;1.30;;;2.80;84.30;;;;;;5043300;28;20190;-72
2021/11/11 04:34:19;;;;;;;1.10;1.00;;;2.80;84.40;;;;;;5043099;28;20195;-72
2021/11/11 05:06:01;;;;;;;1.00;1.00;;;2.50;85.40;;;;;;5041994;28;20653;-71
2021/11/11 05:08:28;;;;;;;1.17;1.07;;;2.50;85.60;;;;;;5042229;28;20175;-71
2021/11/11 05:10:54;;;;;;;1.43;1.30;;;2.50;85.80;;;;;;5046896;28;20180;-71
2021/11/11 05:13:20;;;;;;;1.60;1.57;;;2.50;85.80;;;;;;5043998;28;20192;-72
2021/11/11 05:15:46;;;;;;;3.93;1.73;;;2.50;86.00;;;;;;5042271;28;20187;-72
2021/11/11 05:18:11;;;;;;;1.93;1.00;;;2.50;86.00;;;;;;5045458;28;20184;-72
2021/11/11 05:20:37;;;;;;;1.17;1.00;;;2.50;85.80;;;;;;5046395;28;20569;-71
2021/11/11 05:23:03;;;;;;;1.00;1.00;;;2.50;85.90;;;;;;5043401;28;20191;-72
2021/11/11 05:25:29;;;;;;;1.27;1.00;;;2.50;85.90;;;;;;5042456;28;20184;-72
2021/11/11 05:27:55;;;;;;;2.07;1.50;;;2.50;86.10;;;;;;5039679;28;20193;-73
2021/11/11 05:30:21;;;;;;;1.13;1.13;;;2.50;86.10;;;;;;5046683;28;20167;-72
2021/11/11 05:32:48;;;;;;;1.00;1.00;;;2.50;86.20;;;;;;5045797;28;20283;-71
2021/11/11 05:35:14;;;;;;;1.27;1.17;;;;;;;;;;5045858;28;20218;-71
2021/11/11 05:37:41;;;;;;;1.43;1.10;;;2.50;86.20;;;;;;5046543;28;20187;-72
2021/11/11 05:40:09;;;;;;;2.00;1.43;;;2.60;86.20;;;;;;5045496;28;20211;-72
2021/11/11 05:42:35;;;;;;;1.87;1.37;;;2.60;86.30;;;;;;5043185;28;20784;-73
2021/11/11 05:45:03;;;;;;;1.47;1.47;;;2.70;86.20;;;;;;5048320;28;20180;-73
2021/11/11 05:47:28;;;;;;;1.60;1.50;;;2.70;86.30;;;;;;5043318;28;20192;-73
2021/11/11 05:49:54;;;;;;;1.53;1.30;;;2.70;86.20;;;;;;5044068;28;20577;-72
2021/11/11 05:52:19;;;;;;;2.03;1.93;;;2.80;86.20;;;;;;5045472;28;21010;-73
2021/11/11 05:54:45;;;;;;;1.93;1.83;;;2.80;86.20;;;;;;5045958;28;20317;-72
2021/11/11 05:57:11;;;;;;;1.70;1.60;;;2.90;86.20;;;;;;5044219;28;20184;-72
2021/11/11 05:59:39;;;;;;;7.47;2.10;;;2.90;86.10;;;;;;5043400;28;20179;-72
2021/11/11 06:02:11;;;;;;;1.47;1.23;;;3.00;86.00;;;;;;5039114;28;20183;-72
2021/11/11 06:04:38;;;;;;;1.83;1.73;;;3.00;86.20;;;;;;5040721;28;20223;-72
2021/11/11 06:07:04;;;;;;;2.97;1.93;;;3.10;86.70;;;;;;5042110;28;20274;-72
2021/11/11 06:09:30;;;;;;;2.20;2.10;;;3.20;86.60;;;;;;5050151;28;20194;-73
2021/11/11 06:11:55;;;;;;;1.47;1.47;;;3.20;86.20;;;;;;5049047;28;20183;-73
2021/11/11 06:14:21;;;;;;;3.70;1.57;;;3.30;86.20;;;;;;5047600;28;20681;-73
2021/11/11 06:16:47;;;;;;;2.10;1.97;;;3.40;86.10;;;;;;5045089;28;20237;-74
2021/11/11 06:19:13;;;;;;;2.00;1.53;;;3.40;86.10;;;;;;5049475;28;20190;-72
2021/11/11 06:21:40;;;;;;;1.20;1.20;;;3.50;86.10;;;;;;5047280;28;20666;-72
2021/11/11 06:24:06;;;;;;;1.97;1.80;;;3.70;85.80;;;;;;5048301;28;20180;-72
2021/11/11 06:26:34;;;;;;;4.17;2.03;;;3.80;85.50;;;;;;5048300;28;20194;-72
2021/11/11 06:29:00;;;;;;;1.90;1.80;;;4.00;85.40;;;;;;5046325;28;20180;-73
2021/11/11 06:31:26;;;;;;;2.70;1.73;;;4.20;85.00;;;;;;5047919;28;20186;-73
2021/11/11 06:33:53;;;;;;;3.43;1.93;;;4.40;84.80;;;;;;5046220;28;20701;-75
2021/11/11 06:36:19;;;;;;;1.97;1.87;;;4.60;84.50;;;;;;5046766;28;20287;-74
2021/11/11 06:38:45;;;;;;;9.60;2.10;;;4.90;83.90;;;;;;5048066;28;20184;-73
2021/11/11 06:41:11;;;;;;;2.87;2.67;;;5.20;82.90;;;;;;5046621;28;20211;-72
2021/11/11 06:43:37;;;;;;;3.83;2.50;;;5.40;81.90;;;;;;5046608;28;20183;-73
2021/11/11 06:46:04;;;;;;;2.20;2.10;;;5.60;81.40;;;;;;5044546;28;20180;-74
2021/11/11 06:48:30;;;;;;;2.93;2.67;;;5.90;80.80;;;;;;5046101;28;20736;-74
2021/11/11 06:50:56;;;;;;;6.03;3.03;;;6.10;80.10;;;;;;5047550;28;20190;-74
2021/11/11 06:53:22;;;;;;;6.03;2.30;;;6.30;79.80;;;;;;5047434;28;20179;-73
2021/11/11 06:55:48;;;;;;;3.03;2.00;;;6.40;79.20;;;;;;5047127;28;20218;-74
2021/11/11 06:58:17;;;;;;;6.03;2.50;;;6.60;78.80;;;;;;5044890;28;20180;-74
2021/11/11 07:00:44;;;;;;;2.50;2.30;;;6.80;78.40;;;;;;5046133;28;21860;-74
2021/11/11 07:03:10;;;;;;;2.27;2.07;;;7.00;77.80;;;;;;5042593;28;20180;-74
2021/11/11 07:05:36;;;;;;;4.53;2.67;;;7.20;77.00;;;;;;5044232;28;20188;-74
2021/11/11 07:08:04;;;;;;;2.40;2.27;;;7.30;75.70;;;;;;5045781;28;20175;-74
2021/11/11 07:10:29;;;;;;;2.50;2.30;;;7.50;75.40;;;;;;5046590;28;20191;-73
2021/11/11 07:12:55;;;;;;;2.97;2.23;;;7.80;75.20;;;;;;5046730;28;20171;-74
2021/11/11 07:15:21;;;;;;;2.67;2.57;;;8.10;75.20;;;;;;5045847;28;20184;-74
2021/11/11 07:17:47;;;;;;;3.70;3.33;;;8.40;75.20;;;;;;5047114;28;20310;-78
2021/11/11 07:20:15;;;;;;;3.57;2.53;;;8.80;74.10;;;;;;5044535;28;20215;-75
2021/11/11 07:22:45;;;;;;;3.27;2.93;;;9.00;72.90;;;;;;5045463;28;20214;-75
2021/11/11 07:25:13;;;;;;;3.07;2.87;;;9.20;72.40;;;;;;5043835;28;20215;-78
2021/11/11 07:27:39;;;;;;;4.63;3.53;;;9.40;71.60;;;;;;5045975;28;20276;-73
2021/11/11 07:30:10;;;;;;;3.70;3.40;;;9.40;71.30;;;;;;5050635;28;20214;-76
2021/11/11 07:32:36;;;;;;;4.93;3.33;;;9.40;70.00;;;;;;5048777;28;20187;-75
2021/11/11 07:35:02;;;;;;;3.47;3.20;;;9.30;69.90;;;;;;5045455;28;20191;-74
2021/11/11 07:37:28;;;;;;;7.73;3.37;;;9.20;70.10;;;;;;5046741;28;20310;-75
2021/11/11 07:39:54;;;;;;;4.93;3.13;;;9.10;70.30;;;;;;5046997;28;20215;-75
2021/11/11 07:42:22;;;;;;;3.80;3.50;;;9.20;70.30;;;;;;5047609;28;20735;-75
2021/11/11 07:44:48;;;;;;;2.67;2.50;;;9.20;70.20;;;;;;5043401;28;20210;-72
2021/11/11 07:47:17;;;;;;;6.73;3.20;;;9.20;69.90;;;;;;5044011;28;20199;-72
2021/11/11 07:49:43;;;;;;;4.77;3.60;;;9.10;70.20;;;;;;5045556;28;20186;-73
2021/11/11 07:52:10;;;;;;;3.40;3.07;;;9.10;69.70;;;;;;5044837;28;20187;-72
2021/11/11 07:54:36;;;;;;;3.70;3.50;;;9.10;69.50;;;;;;5043851;28;20325;-72
2021/11/11 07:57:02;;;;;;;3.60;3.40;;;9.00;70.00;;;;;;5046409;28;20188;-72
2021/11/11 07:59:28;;;;;;;4.77;3.70;;;9.10;70.10;;;;;;5046940;28;20187;-72
2021/11/11 08:01:53;;;;;;;4.50;3.93;;;9.30;70.00;;;;;;5046461;28;20672;-72
2021/11/11 08:04:19;;;;;;;4.40;4.00;;;9.30;69.60;;;;;;5045765;28;20210;-71
2021/11/11 08:06:45;;;;;;;4.47;3.80;;;9.20;69.60;;;;;;5046258;28;20191;-72
2021/11/11 08:09:11;;;;;;;4.43;3.77;;;9.20;69.40;;;;;;5047745;28;20207;-73
2021/11/11 08:11:36;;;;;;;3.67;3.43;;;9.20;69.20;;;;;;5044261;28;20198;-73
2021/11/11 08:14:05;;;;;;;4.33;3.93;;;9.20;69.20;;;;;;5044048;28;20263;-73
2021/11/11 08:16:31;;;;;;;5.83;3.73;;;9.30;69.20;;;;;;5045938;28;20190;-73
2021/11/11 08:18:58;;;;;;;5.07;4.50;;;9.30;68.70;;;;;;5047085;28;20188;-72
2021/11/11 08:21:24;;;;;;;9.30;4.30;;;9.30;68.90;;;;;;5047617;28;20261;-73
2021/11/11 08:23:50;;;;;;;3.80;3.50;;;9.40;69.20;;;;;;5044715;28;20180;-73
2021/11/11 08:26:16;;;;;;;3.60;3.30;;;9.50;68.60;;;;;;5044849;28;20191;-74
2021/11/11 08:28:42;;;;;;;4.73;4.13;;;9.70;68.60;;;;;;5044319;28;20273;-74
2021/11/11 08:31:08;;;;;;;4.40;4.00;;;9.90;68.50;;;;;;5043159;28;20716;-75
2021/11/11 08:33:33;;;;;;;5.13;4.73;;;10.20;68.00;;;;;;5047463;28;20210;-74
2021/11/11 08:35:59;;;;;;;7.67;5.50;;;10.40;67.40;;;;;;5045149;28;20552;-75
2021/11/11 08:38:27;;;;;;;6.30;5.70;;;10.40;66.70;;;;;;5046650;28;20214;-74
2021/11/11 08:40:54;;;;;;;6.07;5.47;;;10.50;66.90;;;;;;5044680;28;20285;-74
2021/11/11 08:43:20;;;;;;;7.73;5.60;;;10.60;66.40;;;;;;5046385;28;20180;-74
2021/11/11 08:45:46;;;;;;;5.20;4.70;;;10.80;66.80;;;;;;5045980;28;20184;-74
2021/11/11 08:48:12;;;;;;;5.28;4.78;;;11.20;66.80;;;;;;5042523;28;20180;-74
2021/11/11 08:50:38;;;;;;;5.82;5.15;;;11.50;66.30;;;;;;5043375;28;20192;-75
2021/11/11 08:53:07;;;;;;;5.10;4.57;;;11.90;65.20;;;;;;5044582;28;20237;-75
2021/11/11 08:55:34;;;;;;;5.07;4.68;;;12.10;64.20;;;;;;5042950;28;20179;-74
2021/11/11 08:58:04;;;;;;;6.70;5.75;;;12.50;64.00;;;;;;5042566;28;20184;-74
2021/11/11 09:00:33;;;;;;;6.63;5.40;;;12.90;63.80;;;;;;5042254;28;20366;-74
2021/11/11 09:03:01;;;;;;;7.20;5.68;;;13.30;63.30;;;;;;5043681;28;20184;-74
2021/11/11 09:05:32;;;;;;;10.32;5.55;;;13.70;62.30;;;;;;5042707;28;20176;-74
2021/11/11 09:07:59;;;;;;;10.32;6.18;;;14.00;61.10;;;;;;5044972;28;20191;-74
2021/11/11 09:10:25;;;;;;;9.00;6.30;;;14.50;61.30;;;;;;5045097;28;20183;-74
2021/11/11 09:12:53;;;;;;;11.35;6.05;;;14.90;60.60;;;;;;5044206;28;20179;-75
2021/11/11 09:15:22;;;;;;;7.60;5.60;;;15.20;60.10;;;;;;5043211;28;20184;-73
2021/11/11 09:17:49;;;;;;;6.75;5.50;;;15.40;59.10;;;;;;5041308;28;20823;-74
2021/11/11 09:20:18;;;;;;;8.30;6.05;;;15.70;58.90;;;;;;5043780;28;20257;-74
2021/11/11 09:22:46;;;;;;;9.30;6.10;;;15.80;57.90;;;;;;5043106;28;20615;-74
2021/11/11 09:25:12;;;;;;;9.73;6.47;;;16.10;57.50;;;;;;5042359;28;20199;-74
2021/11/11 09:27:39;;;;;;;9.38;6.35;;;16.40;57.30;;;;;;5042953;28;20194;-73
2021/11/11 09:30:09;;;;;;;8.43;6.72;;;16.60;56.30;;;;;;5044736;28;20195;-74
2021/11/11 09:32:35;;;;;;;8.70;7.20;;;16.70;55.60;;;;;;5045602;28;20225;-74
2021/11/11 09:35:03;;;;;;;7.10;6.40;;;16.80;55.70;;;;;;5044049;28;20661;-74
2021/11/11 09:37:29;;;;;;;8.98;6.97;;;17.00;56.10;;;;;;5043964;28;20696;-74
2021/11/11 09:39:55;;;;;;;10.18;7.53;;;17.30;55.20;;;;;;5044244;28;20199;-73
2021/11/11 09:42:22;;;;;;;7.95;7.25;;;17.30;54.60;;;;;;5044509;28;20187;-75
2021/11/11 09:44:48;;;;;;;7.70;6.10;;;17.30;55.40;;;;;;5051177;28;20188;-75
2021/11/11 09:47:14;;;;;;;5.93;5.43;;;17.40;54.70;;;;;;5050826;28;20194;-75
2021/11/11 09:49:40;;;;;;;5.88;5.43;;;17.60;55.50;;;;;;5051092;28;20617;-76
2021/11/11 09:52:06;;;;;;;5.72;5.25;;;17.90;54.60;;;;;;5053250;28;20179;-75
2021/11/11 09:59:43;;;;;;;7.05;6.18;;;17.90;54.20;;;;;;5050707;28;20186;-76
2021/11/11 10:02:10;;;;;;;9.43;6.38;;;18.00;54.10;;;;;;5050533;28;20179;-76
2021/11/11 10:04:38;;;;;;;6.82;5.97;;;18.10;53.20;;;;;;5049007;28;20214;-75
2021/11/11 10:07:05;;;;;;;6.95;6.30;;;18.10;53.40;;;;;;5052207;28;20241;-76
2021/11/11 10:09:31;;;;;;;12.65;7.38;;;17.70;53.10;;;;;;5051846;28;20176;-77
2021/11/11 10:12:02;;;;;;;9.82;7.25;;;17.30;53.20;;;;;;5049434;28;20187;-77
2021/11/11 10:14:34;;;;;;;10.38;5.85;;;17.10;54.50;;;;;;5049845;28;20270;-79
2021/11/11 10:17:04;;;;;;;9.07;6.60;;;17.10;55.10;;;;;;5050212;28;20240;-76
2021/11/11 10:19:32;;;;;;;8.50;6.30;;;17.20;54.60;;;;;;5049850;28;20637;-75
2021/11/11 10:22:05;;;;;;;10.07;6.32;;;17.30;54.30;;;;;;5050516;28;20242;-74
2021/11/11 10:24:47;;;;;;;6.57;5.97;;;17.50;54.70;;;;;;5048945;28;20184;-77
2021/11/11 10:27:27;;;;;;;10.63;6.30;;;17.80;55.00;;;;;;5047249;28;20633;-76
2021/11/11 10:30:23;;;;;;;5.75;5.25;;;18.30;52.60;;;;;;5045824;28;20743;-74
2021/11/11 10:32:55;;;;;;;7.43;6.50;;;18.60;53.00;;;;;;5046132;28;20191;-76
2021/11/11 10:35:30;;;;;;;6.13;5.57;;;18.90;53.80;;;;;;5050321;28;20191;-76
2021/11/11 10:38:13;;;;;;;6.45;5.88;;;19.20;53.00;;;;;;5051875;28;20176;-79
2021/11/11 10:40:49;;;;;;;8.93;6.65;;;19.10;51.50;;;;;;5049529;28;20211;-76
2021/11/11 10:43:22;;;;;;;6.95;6.25;;;19.10;52.10;;;;;;5047519;28;20182;-76
2021/11/11 10:45:52;;;;;;;9.43;7.45;;;19.10;50.20;;;;;;5051688;28;20210;-76
2021/11/11 10:48:23;;;;;;;7.57;6.88;;;19.10;51.50;;;;;;5050872;28;20677;-75
2021/11/11 10:50:52;;;;;;;10.40;7.60;;;19.10;51.30;;;;;;5048971;28;20303;-74
2021/11/11 10:53:24;;;;;;;9.43;6.20;;;19.00;51.50;;;;;;5046115;28;20871;-76
2021/11/11 10:55:53;;;;;;;10.75;6.45;;;19.00;52.40;;;;;;5042551;28;20757;-76
2021/11/11 10:58:24;;;;;;;8.07;6.05;;;19.00;51.90;;;;;;5043586;28;20179;-76
2021/11/11 11:01:03;;;;;;;18.52;5.50;;;19.00;51.70;;;;;;5045335;28;20212;-77
2021/11/11 11:03:37;;;;;;;8.80;6.45;;;19.00;52.50;;;;;;5043561;28;20186;-77
2021/11/11 11:06:07;;;;;;;13.45;6.80;;;19.10;52.20;;;;;;5044513;28;20245;-75
2021/11/11 11:08:44;;;;;;;9.23;6.78;;;19.20;52.40;;;;;;5043944;28;20209;-76
2021/11/11 11:11:15;;;;;;;12.80;7.15;;;19.20;52.50;;;;;;5045290;28;20241;-76
2021/11/11 11:13:44;;;;;;;7.22;6.53;;;19.20;52.20;;;;;;5043529;28;20184;-74
2021/11/11 11:16:14;;;;;;;7.47;6.70;;;19.30;51.70;;;;;;5044848;28;20187;-77
2021/11/11 11:18:57;;;;;;;7.30;6.55;;;19.40;51.50;;;;;;5046705;28;20191;-76
2021/11/11 11:21:26;;;;;;;9.68;6.60;;;19.50;51.70;;;;;;5042921;28;20215;-76
2021/11/11 11:23:58;;;;;;;9.05;6.72;;;19.40;51.90;;;;;;5045183;28;20234;-77
2021/11/11 11:27:08;;;;;;;9.77;6.15;;;19.20;51.80;;;;;;5047154;28;20287;-78
2021/11/11 11:29:40;;;;;;;11.80;6.18;;;19.20;51.80;;;;;;5006044;28;20203;-77
2021/11/11 11:34:43;;;;;;;8.20;6.57;;;19.30;51.50;;;;;;5021351;28;20195;-76
2021/11/11 11:37:13;;;;;;;9.75;6.57;;;19.30;51.70;;;;;;5021729;28;20271;-76
2021/11/11 11:40:20;;;;;;;7.15;6.32;;;19.30;51.30;;;;;;5022465;28;20712;-77
2021/11/11 11:42:48;;;;;;;7.07;6.38;;;19.30;50.50;;;;;;5020108;28;20223;-77
2021/11/11 11:45:19;;;;;;;5.13;4.78;;;19.40;51.70;;;;;;5022210;28;20258;-78
2021/11/11 11:48:07;;;;;;;6.60;5.65;;;19.70;52.00;;;;;;5007114;28;20723;-77
2021/11/11 11:50:39;;;;;;;5.65;4.88;;;19.90;51.60;;;;;;5022692;28;20196;-77
2021/11/11 11:53:07;;;;;;;5.25;4.65;;;20.00;50.80;;;;;;5021531;28;20184;-76
2021/11/11 11:55:44;;;;;;;5.20;4.80;;;20.20;50.70;;;;;;5021875;28;20188;-76
2021/11/11 12:06:27;;;;;;;6.90;5.40;;;20.20;50.10;;;;;;5021280;28;20647;-78
2021/11/11 12:09:11;;;;;;;7.30;5.40;;;20.20;49.30;;;;;;5004605;28;20347;-77
2021/11/11 12:14:54;;;;;;;6.00;5.43;;;20.50;50.10;;;;;;5021788;28;20881;-78
2021/11/11 12:39:49;;;;;;;6.65;5.22;;;20.80;49.20;;;;;;5046025;28;20435;-79
2021/11/11 12:42:31;;;;;;;9.98;5.68;;;20.80;49.10;;;;;;5045189;28;20590;-79
2021/11/11 12:45:12;;;;;;;6.32;5.45;;;20.60;49.90;;;;;;5040616;28;20176;-79
2021/11/11 12:47:45;;;;;;;6.45;5.80;;;20.70;49.90;;;;;;5043394;28;20262;-79
2021/11/11 12:50:33;;;;;;;6.53;5.93;;;20.70;50.20;;;;;;5044869;28;21632;-79
2021/11/11 12:53:13;;;;;;;7.88;5.65;;;20.90;49.30;;;;;;5044187;28;20558;-78
2021/11/11 12:55:41;;;;;;;6.05;5.53;;;21.00;49.30;;;;;;5044467;28;20202;-77
2021/11/11 12:58:09;;;;;;;8.20;6.00;;;21.00;48.60;;;;;;5043057;28;21036;-79
2021/11/11 13:00:45;;;;;;;5.90;5.35;;;20.90;50.00;;;;;;5045047;28;20215;-77
2021/11/11 13:03:11;;;;;;;8.90;5.70;;;20.80;50.00;;;;;;5042593;28;20190;-76
2021/11/11 13:05:50;;;;;;;9.73;5.20;;;20.70;50.50;;;;;;5041774;28;20677;-75
2021/11/11 13:08:21;;;;;;;10.60;5.65;;;20.40;48.70;;;;;;5043676;28;20199;-75
2021/11/11 13:10:57;;;;;;;11.02;7.35;;;19.90;49.60;;;;;;5043408;28;20229;-77
2021/11/11 13:13:27;;;;;;;6.03;5.45;;;19.40;50.00;;;;;;5043652;28;20733;-78
2021/11/11 13:16:19;;;;;;;6.53;5.30;;;18.90;50.80;;;;;;5043266;28;20179;-77
2021/11/11 13:18:50;;;;;;;7.00;5.63;;;18.40;50.70;;;;;;5044347;28;20593;-78
2021/11/11 13:21:26;;;;;;;6.80;5.18;;;18.00;52.60;;;;;;5042673;28;20249;-77
2021/11/11 13:24:53;;;;;;;6.63;5.97;;;17.60;52.80;;;;;;5043807;28;20202;-77
2021/11/11 16:26:25;;;;;;;8.77;6.23;;;8.80;70.70;;;;;;4998043;28;20219;-76
2021/11/11 16:28:57;;;;;;;11.17;6.57;;;8.70;70.70;;;;;;4995504;28;20189;-74
2021/11/11 16:31:25;;;;;;;7.80;6.10;;;8.70;71.00;;;;;;4994453;28;20184;-77
2021/11/11 16:33:53;;;;;;;15.30;7.60;;;8.70;71.20;;;;;;4980943;28;20187;-76
2021/11/11 16:36:20;;;;;;;11.37;7.40;;;8.60;71.70;;;;;;5001963;28;20243;-76
2021/11/11 16:38:48;;;;;;;23.73;9.67;;;8.60;72.40;;;;;;4998825;28;20280;-76
2021/11/11 16:41:14;;;;;;;15.13;8.00;;;8.50;71.70;;;;;;5004822;28;20230;-75
2021/11/11 16:43:41;;;;;;;19.77;9.63;;;8.40;72.10;;;;;;5041803;28;20195;-76
2021/11/11 16:46:07;;;;;;;17.57;10.50;;;8.40;72.90;;;;;;5042675;28;20217;-78
2021/11/11 16:48:36;;;;;;;17.27;10.77;;;8.40;73.30;;;;;;5044987;28;20191;-78
2021/11/11 16:51:03;;;;;;;20.67;11.47;;;8.30;73.80;;;;;;5040144;28;20973;-76
2021/11/11 16:53:29;;;;;;;29.80;12.60;;;8.20;73.90;;;;;;5041881;28;20180;-74
2021/11/11 16:55:55;;;;;;;29.20;11.90;;;8.20;73.90;;;;;;5042349;28;20176;-79
2021/11/11 16:58:21;;;;;;;24.67;13.57;;;8.10;74.50;;;;;;5042817;28;20180;-82
2021/11/11 17:00:47;;;;;;;28.10;13.50;;;8.00;74.80;;;;;;5040301;28;20211;-78
2021/11/11 17:03:13;;;;;;;30.37;14.00;;;8.00;74.90;;;;;;5041150;28;20188;-77
2021/11/11 17:05:43;;;;;;;23.20;12.43;;;8.00;74.50;;;;;;5040782;28;20234;-76
2021/11/11 17:08:09;;;;;;;23.30;12.87;;;7.90;74.00;;;;;;5042402;28;20188;-77
2021/11/11 17:10:36;;;;;;;20.50;11.00;;;7.90;73.90;;;;;;5043814;28;20195;-78